Time;durP1;ratioP1;P1;durP2;ratioP2;P2;SDS_P1;SDS_P2;PMS_P1;PMS_P2;Temp;Humidity;BMP_temperature;BMP_pressure;BME280_temperature;BME280_humidity;BME280_pressure;Samples;Min_cycle;Max_cycle;Signal;HPM_P1;HPM_P2
2023/02/21 02:15:41;;;;;;;5.70;4.60;;;20.00;82.10;;;;;;5047638;28;20601;-62
2023/02/21 02:18:31;;;;;;;4.32;4.03;;;20.00;82.10;;;;;;5002861;28;20199;-61
2023/02/21 02:21:41;;;;;;;4.40;4.10;;;20.00;82.10;;;;;;5047624;28;20560;-62
2023/02/21 02:24:39;;;;;;;4.72;4.38;;;20.00;82.10;;;;;;5047608;28;20707;-61
2023/02/21 02:27:42;;;;;;;4.15;3.85;;;20.00;82.00;;;;;;5048333;28;20199;-61
2023/02/21 02:30:59;;;;;;;4.70;4.40;;;20.00;82.10;;;;;;5039174;28;20257;-62
2023/02/21 02:33:57;;;;;;;3.72;3.53;;;20.00;82.10;;;;;;5036112;28;20205;-61
2023/02/21 02:36:29;;;;;;;4.85;4.45;;;19.90;81.90;;;;;;5037943;28;20200;-62
2023/02/21 02:39:04;;;;;;;4.00;3.70;;;19.90;81.90;;;;;;5038665;28;20204;-61
2023/02/21 02:41:44;;;;;;;4.30;3.90;;;19.90;81.90;;;;;;5046776;28;20210;-61
2023/02/21 02:44:15;;;;;;;4.25;3.95;;;19.90;82.00;;;;;;5044612;28;20203;-63
2023/02/21 02:46:45;;;;;;;4.53;4.22;;;19.90;81.90;;;;;;5048155;28;20223;-63
2023/02/21 02:49:16;;;;;;;4.60;4.30;;;19.90;81.90;;;;;;5049015;28;20206;-60
2023/02/21 02:51:44;;;;;;;3.75;3.45;;;19.90;82.00;;;;;;5050583;28;20231;-61
2023/02/21 02:54:11;;;;;;;4.70;4.30;;;19.90;82.00;;;;;;5050956;28;20204;-61
2023/02/21 02:56:38;;;;;;;4.60;4.20;;;19.90;82.70;;;;;;5051931;28;20202;-62
2023/02/21 02:59:07;;;;;;;4.85;4.45;;;19.90;81.90;;;;;;5043532;28;20207;-61
2023/02/21 03:02:10;;;;;;;3.75;3.50;;;19.90;81.90;;;;;;5047879;28;20203;-63
2023/02/21 03:04:53;;;;;;;3.72;3.42;;;19.90;81.90;;;;;;5048032;28;20191;-62
2023/02/21 03:07:32;;;;;;;4.55;4.25;;;19.90;81.90;;;;;;5049988;28;20196;-64
2023/02/21 03:10:13;;;;;;;4.88;4.57;;;19.90;81.90;;;;;;5048677;28;20290;-62
2023/02/21 03:12:47;;;;;;;4.55;4.22;;;19.90;81.90;;;;;;5050627;28;20437;-61
2023/02/21 03:15:19;;;;;;;5.05;4.57;;;19.90;81.90;;;;;;5047619;28;20202;-62
2023/02/21 03:17:53;;;;;;;4.47;4.07;;;19.90;81.90;;;;;;5050388;28;20196;-61
2023/02/21 03:20:21;;;;;;;4.20;3.80;;;19.90;81.90;;;;;;5044868;28;20195;-64
2023/02/21 03:22:52;;;;;;;4.45;4.15;;;19.90;81.90;;;;;;5048249;28;20790;-60
2023/02/21 03:25:20;;;;;;;4.32;4.03;;;19.90;81.90;;;;;;5050142;28;20690;-64
2023/02/21 03:27:48;;;;;;;3.95;3.65;;;19.90;81.90;;;;;;5049017;28;20203;-61
2023/02/21 03:30:15;;;;;;;4.47;4.15;;;19.80;81.80;;;;;;5045361;28;20690;-61
2023/02/21 03:32:46;;;;;;;4.57;4.18;;;19.80;81.80;;;;;;5049542;28;20196;-60
2023/02/21 03:35:12;;;;;;;4.25;3.95;;;19.80;81.80;;;;;;5045454;28;20555;-62
2023/02/21 03:37:41;;;;;;;4.60;4.20;;;19.80;81.80;;;;;;5051737;28;20203;-61
2023/02/21 03:40:13;;;;;;;4.03;3.72;;;19.80;81.80;;;;;;5050010;28;20204;-60
2023/02/21 03:42:40;;;;;;;4.32;4.00;;;19.80;82.60;;;;;;5044504;28;20196;-61
2023/02/21 03:45:07;;;;;;;4.55;4.20;;;19.80;82.50;;;;;;5043529;28;20199;-65
2023/02/21 03:47:34;;;;;;;4.07;3.78;;;19.80;81.70;;;;;;5042709;28;20200;-61
2023/02/21 03:50:01;;;;;;;3.65;3.45;;;19.80;81.80;;;;;;5044416;28;20575;-62
2023/02/21 03:52:27;;;;;;;4.55;4.22;;;19.80;81.70;;;;;;5045430;28;20674;-61
2023/02/21 03:54:54;;;;;;;4.00;3.70;;;19.80;81.70;;;;;;5042583;28;20200;-61
2023/02/21 03:57:22;;;;;;;4.20;3.80;;;19.80;81.70;;;;;;5046580;28;20645;-62
2023/02/21 03:59:49;;;;;;;3.85;3.55;;;19.80;81.70;;;;;;5039575;28;20200;-61
2023/02/21 04:02:16;;;;;;;4.25;3.95;;;19.80;81.70;;;;;;5042990;28;20196;-61
2023/02/21 04:04:43;;;;;;;4.60;4.20;;;19.80;81.70;;;;;;5039994;28;20713;-62
2023/02/21 04:07:11;;;;;;;4.45;4.05;;;19.80;81.70;;;;;;5041963;28;20192;-62
2023/02/21 04:09:38;;;;;;;4.70;4.40;;;19.80;81.70;;;;;;5040811;28;20195;-60
2023/02/21 04:12:05;;;;;;;4.35;3.95;;;19.80;81.80;;;;;;5046385;28;20325;-63
2023/02/21 04:14:34;;;;;;;3.80;3.50;;;19.80;81.70;;;;;;5041570;28;20211;-61
2023/02/21 04:17:00;;;;;;;4.32;4.03;;;19.80;81.70;;;;;;5041772;28;20226;-61
2023/02/21 04:19:27;;;;;;;4.40;4.10;;;19.80;81.70;;;;;;5041851;28;20188;-61
2023/02/21 04:21:54;;;;;;;3.97;3.70;;;19.70;81.50;;;;;;5038896;28;20239;-63
2023/02/21 04:24:20;;;;;;;4.32;3.92;;;19.70;81.50;;;;;;5035289;28;20199;-64
2023/02/21 04:26:47;;;;;;;4.10;3.80;;;19.70;81.60;;;;;;5038204;28;20196;-65
2023/02/21 04:29:14;;;;;;;4.40;4.10;;;19.70;81.60;;;;;;5044387;28;20586;-61
2023/02/21 04:31:42;;;;;;;4.03;3.72;;;19.70;81.50;;;;;;5041264;28;20219;-60
2023/02/21 04:34:09;;;;;;;4.45;4.15;;;19.70;81.50;;;;;;5039900;28;20191;-62
2023/02/21 04:36:37;;;;;;;4.05;3.75;;;19.70;81.60;;;;;;5049263;28;20195;-62
2023/02/21 04:39:03;;;;;;;4.72;4.32;;;19.70;81.60;;;;;;5047944;28;20647;-61
2023/02/21 04:41:30;;;;;;;5.10;4.63;;;19.70;81.60;;;;;;5035500;28;20195;-61
2023/02/21 04:43:57;;;;;;;3.72;3.42;;;19.70;81.50;;;;;;5039847;28;20664;-61
2023/02/21 04:46:23;;;;;;;4.72;4.40;;;19.70;82.30;;;;;;5034056;28;20206;-62
2023/02/21 04:48:52;;;;;;;4.20;3.80;;;19.70;81.60;;;;;;5035866;28;20205;-60
2023/02/21 04:51:22;;;;;;;4.35;4.05;;;19.70;81.50;;;;;;5040439;28;20215;-62
2023/02/21 04:53:49;;;;;;;4.30;4.00;;;19.70;81.50;;;;;;5035719;28;20599;-61
2023/02/21 04:56:19;;;;;;;3.88;3.58;;;19.70;81.50;;;;;;5046183;28;20535;-62
2023/02/21 04:58:47;;;;;;;4.43;4.13;;;19.70;81.50;;;;;;5046290;28;20563;-62
2023/02/21 05:01:14;;;;;;;3.72;3.50;;;19.70;81.50;;;;;;5042597;28;20281;-62
2023/02/21 05:03:40;;;;;;;4.05;3.75;;;19.70;81.50;;;;;;5047023;28;20660;-60
2023/02/21 05:06:08;;;;;;;4.05;3.75;;;19.70;81.50;;;;;;5049630;28;20207;-63
2023/02/21 05:08:36;;;;;;;4.18;3.88;;;19.70;81.50;;;;;;5049420;28;20651;-60
2023/02/21 05:11:03;;;;;;;4.10;3.80;;;19.70;81.50;;;;;;5046977;28;20219;-61
2023/02/21 05:13:30;;;;;;;4.75;4.35;;;19.70;81.50;;;;;;5048775;28;20202;-62
2023/02/21 05:15:57;;;;;;;4.65;4.25;;;19.70;81.50;;;;;;5048771;28;20206;-60
2023/02/21 05:18:27;;;;;;;4.10;3.80;;;19.70;81.50;;;;;;5048013;28;20207;-63
2023/02/21 05:20:54;;;;;;;4.00;3.70;;;19.70;81.50;;;;;;5048042;28;20233;-63
2023/02/21 05:23:32;;;;;;;4.10;3.80;;;19.60;81.40;;;;;;5049243;28;20215;-60
2023/02/21 05:25:59;;;;;;;3.40;3.10;;;19.60;81.40;;;;;;5043951;28;20290;-62
2023/02/21 05:28:26;;;;;;;4.53;4.15;;;19.60;81.40;;;;;;5043261;28;20192;-62
2023/02/21 05:30:53;;;;;;;4.43;4.13;;;19.60;81.40;;;;;;5040683;28;20240;-60
2023/02/21 05:33:19;;;;;;;4.53;4.22;;;19.60;81.40;;;;;;5047843;28;20246;-62
2023/02/21 05:35:47;;;;;;;3.88;3.58;;;19.60;81.40;;;;;;5049848;28;20187;-60
2023/02/21 05:38:14;;;;;;;3.50;3.20;;;19.60;81.40;;;;;;5043881;28;20192;-61
2023/02/21 05:40:42;;;;;;;3.55;3.33;;;19.60;81.40;;;;;;5040500;28;20564;-61
2023/02/21 05:43:08;;;;;;;4.22;3.92;;;19.60;81.40;;;;;;5048660;28;20210;-61
2023/02/21 05:45:35;;;;;;;3.65;3.45;;;19.60;82.30;;;;;;5047147;28;20200;-62
2023/02/21 05:48:02;;;;;;;4.10;3.85;;;19.60;81.50;;;;;;5047275;28;20206;-61
2023/02/21 05:50:30;;;;;;;4.20;3.92;;;19.60;81.50;;;;;;5048504;28;20196;-61
2023/02/21 05:52:57;;;;;;;4.22;3.83;;;19.60;81.50;;;;;;5048310;28;20203;-62
2023/02/21 05:55:24;;;;;;;4.10;3.80;;;19.60;81.50;;;;;;5039354;28;20253;-61
2023/02/21 05:57:52;;;;;;;4.18;3.35;;;19.60;81.50;;;;;;5039106;28;20187;-61
2023/02/21 06:00:22;;;;;;;3.83;3.53;;;19.60;81.60;;;;;;5043033;28;20196;-62
2023/02/21 06:02:49;;;;;;;4.60;4.20;;;19.60;81.50;;;;;;5037964;28;20200;-61
2023/02/21 06:05:17;;;;;;;4.35;3.95;;;19.60;81.60;;;;;;5043971;28;20192;-62
2023/02/21 06:07:43;;;;;;;3.80;3.50;;;19.60;81.70;;;;;;5047192;28;20610;-62
2023/02/21 06:10:10;;;;;;;4.28;3.95;;;19.60;81.60;;;;;;5044435;28;20192;-61
2023/02/21 06:12:37;;;;;;;4.78;4.47;;;19.60;81.60;;;;;;5049838;28;20558;-61
2023/02/21 06:15:06;;;;;;;3.65;3.40;;;19.60;81.60;;;;;;5046558;28;20195;-61
2023/02/21 06:17:33;;;;;;;4.00;3.65;;;19.60;81.60;;;;;;5046932;28;20208;-63
2023/02/21 06:19:59;;;;;;;3.85;3.55;;;19.60;81.50;;;;;;5046390;28;20203;-60
2023/02/21 06:22:26;;;;;;;4.10;3.80;;;19.60;81.60;;;;;;5050336;28;20215;-62
2023/02/21 06:24:53;;;;;;;4.00;3.60;;;19.60;81.60;;;;;;5050759;28;20200;-61
2023/02/21 06:27:20;;;;;;;3.30;3.00;;;19.60;81.60;;;;;;5051890;28;20195;-61
2023/02/21 06:29:46;;;;;;;3.72;3.47;;;19.60;81.70;;;;;;5049790;28;20191;-62
2023/02/21 06:32:14;;;;;;;3.72;3.47;;;19.60;81.70;;;;;;5046086;28;20219;-62
2023/02/21 06:34:43;;;;;;;3.55;3.35;;;19.60;81.70;;;;;;5050083;28;20195;-60
2023/02/21 06:37:10;;;;;;;3.40;3.17;;;19.60;81.70;;;;;;5052835;28;20192;-61
2023/02/21 06:39:38;;;;;;;3.50;3.20;;;19.60;81.70;;;;;;5052305;28;20547;-61
2023/02/21 06:42:05;;;;;;;3.70;3.40;;;19.70;81.80;;;;;;5051372;28;20222;-61
2023/02/21 06:44:32;;;;;;;3.65;3.35;;;19.60;81.70;;;;;;5050092;28;20203;-61
2023/02/21 06:46:58;;;;;;;3.72;3.42;;;19.60;81.70;;;;;;5050330;28;20199;-62
2023/02/21 06:49:26;;;;;;;3.30;3.00;;;19.70;81.70;;;;;;5050503;28;20655;-63
2023/02/21 06:51:53;;;;;;;3.42;3.22;;;19.60;81.60;;;;;;5051331;28;20239;-62
2023/02/21 06:54:20;;;;;;;2.85;2.65;;;19.60;81.60;;;;;;5052181;28;20199;-61
2023/02/21 06:56:47;;;;;;;4.30;3.90;;;19.60;81.60;;;;;;5048562;28;20223;-60
2023/02/21 06:59:14;;;;;;;4.30;3.45;;;19.60;81.60;;;;;;5043443;28;20196;-61
2023/02/21 07:01:40;;;;;;;3.30;3.10;;;19.60;81.70;;;;;;5045388;28;20191;-61
2023/02/21 07:04:07;;;;;;;3.78;3.47;;;19.60;81.70;;;;;;5051568;28;20200;-61
2023/02/21 07:06:35;;;;;;;3.53;3.33;;;19.60;81.70;;;;;;5044541;28;20223;-62
2023/02/21 07:09:02;;;;;;;3.10;2.80;;;19.60;81.70;;;;;;5043098;28;20221;-62
2023/02/21 07:11:31;;;;;;;3.58;3.28;;;19.70;81.90;;;;;;5042232;28;20219;-61
2023/02/21 07:13:58;;;;;;;3.25;3.00;;;19.70;81.90;;;;;;5044033;28;20203;-62
2023/02/21 07:16:25;;;;;;;3.40;3.17;;;19.70;81.90;;;;;;5046466;28;20215;-64
2023/02/21 07:18:52;;;;;;;3.38;3.08;;;19.70;81.90;;;;;;5049103;28;20690;-61
2023/02/21 07:21:20;;;;;;;3.45;3.15;;;19.70;81.90;;;;;;5052618;28;20203;-63
2023/02/21 07:23:49;;;;;;;3.22;2.92;;;19.70;81.90;;;;;;5051853;28;20196;-61
2023/02/21 07:26:16;;;;;;;2.95;2.75;;;19.70;81.80;;;;;;5041462;28;20196;-61
2023/02/21 07:28:43;;;;;;;3.28;3.03;;;19.70;81.90;;;;;;5048862;28;20207;-61
2023/02/21 07:31:10;;;;;;;2.83;2.63;;;19.80;82.00;;;;;;5046034;28;20202;-63
2023/02/21 07:33:37;;;;;;;2.80;2.60;;;19.80;82.00;;;;;;5049652;28;20227;-62
2023/02/21 07:36:04;;;;;;;3.08;2.78;;;19.80;82.00;;;;;;5051382;28;20204;-61
2023/02/21 07:38:31;;;;;;;2.53;2.33;;;19.80;82.00;;;;;;5050171;28;20195;-62
2023/02/21 07:41:01;;;;;;;3.30;3.10;;;19.80;82.00;;;;;;5043409;28;20196;-61
2023/02/21 07:43:29;;;;;;;2.80;2.60;;;19.80;82.00;;;;;;5039319;28;20203;-61
2023/02/21 07:45:56;;;;;;;2.67;2.47;;;19.80;82.00;;;;;;5046828;28;20274;-61
2023/02/21 07:48:23;;;;;;;2.90;2.70;;;19.80;82.10;;;;;;5043188;28;20195;-63
2023/02/21 07:50:50;;;;;;;3.05;2.85;;;19.80;82.10;;;;;;5047202;28;20188;-61
2023/02/21 07:53:17;;;;;;;2.53;2.33;;;19.80;82.10;;;;;;5047947;28;20215;-61
2023/02/21 07:55:44;;;;;;;3.53;3.22;;;19.80;82.10;;;;;;5049495;28;20207;-62
2023/02/21 07:58:12;;;;;;;3.03;2.83;;;19.80;82.10;;;;;;5051746;28;20203;-61
2023/02/21 08:00:39;;;;;;;3.05;2.80;;;19.80;82.10;;;;;;5041501;28;20203;-61
2023/02/21 08:03:05;;;;;;;2.88;2.67;;;19.80;82.10;;;;;;5046532;28;20203;-61
2023/02/21 08:05:32;;;;;;;2.92;2.70;;;19.80;82.10;;;;;;5045637;28;20655;-61
2023/02/21 08:07:59;;;;;;;2.85;2.65;;;19.90;82.30;;;;;;5050149;28;20195;-61
2023/02/21 08:10:27;;;;;;;3.45;3.17;;;19.90;82.30;;;;;;5043813;28;20204;-62
2023/02/21 08:12:53;;;;;;;2.85;2.65;;;19.90;82.30;;;;;;5051501;28;20618;-63
2023/02/21 08:15:22;;;;;;;3.50;2.63;;;19.90;82.30;;;;;;5041226;28;20243;-61
2023/02/21 08:17:49;;;;;;;2.95;2.75;;;19.80;82.20;;;;;;5040289;28;20230;-62
2023/02/21 08:20:16;;;;;;;3.13;2.92;;;19.80;82.20;;;;;;5046754;28;20199;-61
2023/02/21 08:22:43;;;;;;;2.80;2.60;;;19.90;82.40;;;;;;5050233;28;20220;-62
2023/02/21 08:25:10;;;;;;;2.70;2.47;;;19.90;82.30;;;;;;5048876;28;20199;-60
2023/02/21 08:27:39;;;;;;;2.70;2.50;;;19.80;82.20;;;;;;5044738;28;20211;-63
2023/02/21 08:30:06;;;;;;;3.17;2.97;;;19.90;82.30;;;;;;5047873;28;20222;-61
2023/02/21 08:32:36;;;;;;;2.60;2.40;;;19.90;82.30;;;;;;5043956;28;20704;-64
2023/02/21 08:35:05;;;;;;;2.75;2.55;;;19.80;82.20;;;;;;5048511;28;20206;-62
2023/02/21 08:37:34;;;;;;;4.28;3.95;;;19.90;82.20;;;;;;5047117;28;20647;-66
2023/02/21 08:40:02;;;;;;;3.90;3.60;;;19.80;82.10;;;;;;5048237;28;20282;-63
2023/02/21 08:42:29;;;;;;;4.70;2.85;;;19.80;82.20;;;;;;5047530;28;20196;-60
2023/02/21 08:44:56;;;;;;;3.42;3.00;;;19.80;82.20;;;;;;5046599;28;20665;-62
2023/02/21 08:47:23;;;;;;;3.30;3.10;;;19.80;82.20;;;;;;5044181;28;20192;-61
2023/02/21 08:49:51;;;;;;;3.70;3.40;;;19.80;82.20;;;;;;5043315;28;20210;-63
2023/02/21 08:52:20;;;;;;;3.50;3.30;;;19.80;82.20;;;;;;5050854;28;20583;-61
2023/02/21 08:54:47;;;;;;;3.60;3.30;;;19.80;82.10;;;;;;5048136;28;20192;-61
2023/02/21 08:57:14;;;;;;;3.60;3.30;;;19.90;82.20;;;;;;5041447;28;20203;-64
2023/02/21 08:59:41;;;;;;;3.50;3.30;;;19.90;82.10;;;;;;5048571;28;20571;-61
2023/02/21 09:02:15;;;;;;;4.20;3.80;;;19.90;82.10;;;;;;5048929;28;20312;-62
2023/02/21 09:04:42;;;;;;;3.65;3.35;;;19.90;82.00;;;;;;5038139;28;20192;-64
2023/02/21 09:07:12;;;;;;;3.60;3.30;;;19.90;82.00;;;;;;5050014;28;20210;-61
2023/02/21 09:09:39;;;;;;;4.57;4.18;;;19.90;82.10;;;;;;5046186;28;20202;-62
2023/02/21 09:12:07;;;;;;;3.65;3.42;;;19.90;82.10;;;;;;5044365;28;20215;-64
2023/02/21 09:14:34;;;;;;;3.45;3.15;;;19.90;82.00;;;;;;5048378;28;20674;-63
2023/02/21 09:17:01;;;;;;;3.08;2.78;;;19.90;82.00;;;;;;5049100;28;20230;-61
2023/02/21 09:19:27;;;;;;;6.63;3.67;;;19.90;82.00;;;;;;5047052;28;20196;-63
2023/02/21 09:21:55;;;;;;;3.15;2.90;;;19.90;82.00;;;;;;5042178;28;20223;-61
2023/02/21 09:24:24;;;;;;;11.55;3.80;;;19.90;82.10;;;;;;5048404;28;20690;-57
2023/02/21 09:26:53;;;;;;;5.32;3.75;;;20.00;82.50;;;;;;5048958;28;20223;-56
2023/02/21 09:29:20;;;;;;;4.07;3.65;;;20.00;82.50;;;;;;5045914;28;20203;-58
2023/02/21 09:31:47;;;;;;;4.07;3.38;;;20.00;82.60;;;;;;5046361;28;20195;-58
2023/02/21 09:34:13;;;;;;;3.95;3.65;;;20.00;83.30;;;;;;5038664;28;20227;-53
2023/02/21 09:36:40;;;;;;;4.28;3.15;;;20.00;82.80;;;;;;5048852;28;20773;-55
2023/02/21 09:39:07;;;;;;;3.45;2.95;;;20.00;82.90;;;;;;5040482;28;20652;-58
2023/02/21 09:41:38;;;;;;;3.55;3.25;;;20.00;82.90;;;;;;5043796;28;20663;-55
2023/02/21 09:44:06;;;;;;;4.20;3.90;;;20.00;82.90;;;;;;5040530;28;20203;-59
2023/02/21 09:46:38;;;;;;;3.58;3.28;;;20.00;83.00;;;;;;5046384;28;20187;-54
2023/02/21 09:49:12;;;;;;;3.78;3.47;;;19.90;82.80;;;;;;5045945;28;20195;-54
2023/02/21 09:51:42;;;;;;;4.50;4.10;;;19.90;82.80;;;;;;5045903;28;20198;-54
2023/02/21 09:54:17;;;;;;;3.97;3.67;;;19.90;82.80;;;;;;5044782;28;20241;-53
2023/02/21 09:56:46;;;;;;;5.00;4.60;;;19.90;82.80;;;;;;5046853;28;20673;-55
2023/02/21 09:59:13;;;;;;;5.55;5.05;;;19.90;82.80;;;;;;5045306;28;20526;-59
2023/02/21 10:01:54;;;;;;;4.10;3.70;;;19.90;82.80;;;;;;5043212;28;20672;-56
2023/02/21 10:04:33;;;;;;;4.45;4.05;;;19.90;82.80;;;;;;5039903;28;20219;-53
2023/02/21 10:07:06;;;;;;;3.88;3.47;;;19.90;82.80;;;;;;5041176;28;20206;-52
2023/02/21 10:09:42;;;;;;;11.35;4.55;;;19.90;82.80;;;;;;5035085;28;20195;-66
2023/02/21 10:12:20;;;;;;;4.28;3.85;;;19.90;82.80;;;;;;5042396;28;20195;-65
2023/02/21 10:15:14;;;;;;;4.68;4.28;;;20.00;82.90;;;;;;5032859;28;20200;-62
2023/02/21 10:17:45;;;;;;;5.07;4.13;;;20.00;82.90;;;;;;5043891;28;20192;-66
2023/02/21 10:20:14;;;;;;;4.80;4.10;;;20.00;82.80;;;;;;5040311;28;20537;-63
2023/02/21 10:22:45;;;;;;;3.75;3.45;;;20.10;82.90;;;;;;5038327;28;20227;-67
2023/02/21 10:25:22;;;;;;;4.15;3.75;;;20.10;83.00;;;;;;5043509;28;20238;-62
2023/02/21 10:27:51;;;;;;;3.75;3.33;;;20.10;83.10;;;;;;5041784;28;20195;-66
2023/02/21 10:30:34;;;;;;;4.55;4.00;;;20.10;83.10;;;;;;5040713;28;20191;-64
2023/02/21 10:33:05;;;;;;;4.72;3.28;;;20.10;83.10;;;;;;5044531;28;20215;-64
2023/02/21 10:35:32;;;;;;;4.75;4.20;;;20.10;83.10;;;;;;5040434;28;20556;-63
2023/02/21 10:38:02;;;;;;;3.70;3.30;;;20.20;83.20;;;;;;5040157;28;20206;-65
2023/02/21 10:40:34;;;;;;;3.97;3.67;;;20.20;83.30;;;;;;5040803;28;20245;-66
2023/02/21 10:43:10;;;;;;;3.58;3.28;;;20.20;83.40;;;;;;5037186;28;20255;-63
2023/02/21 10:45:42;;;;;;;4.28;3.88;;;20.20;83.50;;;;;;5045178;28;20203;-66
2023/02/21 10:48:10;;;;;;;4.13;3.73;;;20.20;83.60;;;;;;5045376;28;20692;-61
2023/02/21 10:50:44;;;;;;;4.32;3.95;;;20.20;83.60;;;;;;5038327;28;20473;-65
2023/02/21 10:53:26;;;;;;;4.22;3.83;;;20.30;83.70;;;;;;5039656;28;20216;-63
2023/02/21 10:56:27;;;;;;;5.22;4.10;;;20.30;83.80;;;;;;5035714;28;20207;-63
2023/02/21 10:58:57;;;;;;;3.90;3.60;;;20.30;83.90;;;;;;5020971;28;20203;-63
2023/02/21 11:01:34;;;;;;;4.40;4.00;;;20.30;83.90;;;;;;5040824;28;20219;-63
2023/02/21 11:04:03;;;;;;;4.28;3.97;;;20.30;84.00;;;;;;5041259;28;20468;-61
2023/02/21 11:06:35;;;;;;;3.90;3.43;;;20.30;84.00;;;;;;5041362;28;20192;-62
2023/02/21 11:09:22;;;;;;;4.25;3.85;;;20.30;84.10;;;;;;5038774;28;20465;-63
2023/02/21 11:12:00;;;;;;;4.00;3.63;;;20.40;84.20;;;;;;5041555;28;20675;-64
2023/02/21 11:14:29;;;;;;;4.32;3.92;;;20.40;84.30;;;;;;5039895;28;20474;-63
2023/02/21 11:17:13;;;;;;;4.72;4.32;;;20.40;84.20;;;;;;5043427;28;20211;-61
2023/02/21 11:19:49;;;;;;;3.90;3.50;;;20.40;84.30;;;;;;5038889;28;20291;-63
2023/02/21 11:22:18;;;;;;;5.38;4.93;;;20.40;84.30;;;;;;5049027;28;20473;-59
2023/02/21 11:24:55;;;;;;;5.65;5.18;;;20.40;84.40;;;;;;5044590;28;20199;-58
2023/02/21 11:27:22;;;;;;;6.35;5.80;;;20.40;84.30;;;;;;5041532;28;20198;-63
2023/02/21 11:29:52;;;;;;;5.47;4.78;;;20.30;83.40;;;;;;5037415;28;20656;-62
2023/02/21 11:32:25;;;;;;;6.78;6.07;;;20.30;83.70;;;;;;5046869;28;20219;-66
2023/02/21 11:35:01;;;;;;;6.72;5.47;;;20.30;83.80;;;;;;5044444;28;20203;-65
2023/02/21 11:37:28;;;;;;;7.97;5.17;;;20.40;84.00;;;;;;5042353;28;20196;-61
2023/02/21 11:39:56;;;;;;;7.55;5.32;;;20.40;84.00;;;;;;5037087;28;20463;-63
2023/02/21 11:42:28;;;;;;;7.70;5.90;;;20.40;84.00;;;;;;5043295;28;20567;-56
2023/02/21 11:45:17;;;;;;;5.10;4.60;;;20.40;84.10;;;;;;5039746;28;20498;-70
2023/02/21 11:47:50;;;;;;;8.35;5.90;;;20.40;84.00;;;;;;5045104;28;20877;-63
2023/02/21 11:50:23;;;;;;;6.05;5.55;;;20.40;84.10;;;;;;5045732;28;20196;-61
2023/02/21 11:52:56;;;;;;;7.20;5.43;;;20.40;84.10;;;;;;5038198;28;20223;-60
2023/02/21 11:55:24;;;;;;;5.85;4.65;;;20.40;84.20;;;;;;5034645;28;20513;-63
2023/02/21 11:58:00;;;;;;;5.38;4.57;;;20.40;84.20;;;;;;5042764;28;20587;-66
2023/02/21 12:00:36;;;;;;;6.25;5.07;;;20.50;84.30;;;;;;5038787;28;20595;-66
2023/02/21 12:03:27;;;;;;;5.50;5.00;;;20.50;84.40;;;;;;5038766;28;20210;-62
2023/02/21 12:06:01;;;;;;;4.57;4.10;;;20.50;84.50;;;;;;5043085;28;20829;-57
2023/02/21 12:08:39;;;;;;;6.47;5.80;;;20.50;84.50;;;;;;5040822;28;20455;-63
2023/02/21 12:11:41;;;;;;;6.57;6.07;;;20.50;84.50;;;;;;5045237;28;20965;-60
2023/02/21 12:14:29;;;;;;;11.50;7.53;;;20.50;84.50;;;;;;5038901;28;20500;-64
2023/02/21 12:17:11;;;;;;;14.20;6.20;;;20.50;84.50;;;;;;5044982;28;20206;-65
2023/02/21 12:20:01;;;;;;;20.55;6.97;;;20.50;84.10;;;;;;5038020;28;20450;-64
2023/02/21 12:22:41;;;;;;;7.75;6.18;;;20.40;83.90;;;;;;5040130;28;20215;-62
2023/02/21 12:25:18;;;;;;;6.22;5.63;;;20.40;83.90;;;;;;5041506;28;20863;-62
2023/02/21 12:27:54;;;;;;;9.38;6.65;;;20.50;84.00;;;;;;5043248;28;20196;-60
2023/02/21 12:30:36;;;;;;;8.02;5.28;;;20.50;83.90;;;;;;5041889;28;20187;-60
2023/02/21 12:33:16;;;;;;;6.57;5.20;;;20.50;83.70;;;;;;5039151;28;20223;-61
2023/02/21 12:36:46;;;;;;;6.73;4.90;;;20.50;83.60;;;;;;5045255;28;20188;-60
2023/02/21 12:39:27;;;;;;;13.63;5.47;;;20.50;83.50;;;;;;4944073;28;21445;-62
2023/02/21 12:42:13;;;;;;;8.82;5.75;;;20.50;83.50;;;;;;4963434;28;20465;-62
2023/02/21 12:44:51;;;;;;;7.03;6.10;;;20.60;83.60;;;;;;5033419;28;20211;-61
2023/02/21 12:47:23;;;;;;;8.13;6.20;;;20.60;83.70;;;;;;5046282;28;20204;-61
2023/02/21 12:49:58;;;;;;;9.27;5.23;;;20.60;83.80;;;;;;5046706;28;20466;-61
2023/02/21 12:52:30;;;;;;;8.65;5.60;;;20.60;83.90;;;;;;5044109;28;20468;-61
2023/02/21 12:55:02;;;;;;;6.65;5.57;;;20.60;83.90;;;;;;5040018;28;20220;-62
2023/02/21 12:57:36;;;;;;;5.20;4.80;;;20.60;83.90;;;;;;5040245;28;20200;-66
2023/02/21 13:00:16;;;;;;;5.30;4.80;;;20.60;84.00;;;;;;5035889;28;20204;-66
2023/02/21 13:02:50;;;;;;;6.28;5.68;;;20.60;84.00;;;;;;5044719;28;20458;-66
2023/02/21 13:05:23;;;;;;;4.97;4.47;;;20.60;84.00;;;;;;5040008;28;20199;-66
2023/02/21 13:07:56;;;;;;;6.77;4.80;;;20.60;84.00;;;;;;5040852;28;20657;-61
2023/02/21 13:10:27;;;;;;;8.50;5.43;;;20.60;84.00;;;;;;5039854;28;20465;-64
2023/02/21 13:12:58;;;;;;;5.67;5.17;;;20.70;84.20;;;;;;5039732;28;20196;-63
2023/02/21 13:15:27;;;;;;;5.78;5.18;;;20.70;84.20;;;;;;5046279;28;20497;-64
2023/02/21 13:18:00;;;;;;;5.93;5.03;;;20.70;84.20;;;;;;5046321;28;20586;-64
2023/02/21 13:20:34;;;;;;;5.88;5.38;;;20.70;84.20;;;;;;5045349;28;20564;-64
2023/02/21 13:26:37;;;;;;;7.57;5.68;;;20.70;84.20;;;;;;5036168;28;20253;-63
2023/02/21 13:29:13;;;;;;;5.50;5.00;;;20.70;84.20;;;;;;5041153;28;20199;-64
2023/02/21 13:31:44;;;;;;;5.63;4.40;;;20.70;84.20;;;;;;5042670;28;21019;-64
2023/02/21 13:34:14;;;;;;;6.13;4.57;;;20.70;84.20;;;;;;5042582;28;20226;-64
2023/02/21 13:36:43;;;;;;;6.43;5.83;;;20.70;84.20;;;;;;5045715;28;20457;-62
2023/02/21 13:39:14;;;;;;;6.00;4.90;;;20.70;84.20;;;;;;5043656;28;20462;-61
2023/02/21 13:41:43;;;;;;;5.90;5.10;;;20.70;84.20;;;;;;5043083;28;20459;-58
2023/02/21 13:44:16;;;;;;;5.40;4.90;;;20.70;84.20;;;;;;5039524;28;20454;-62
2023/02/21 13:47:12;;;;;;;5.90;5.40;;;20.70;84.10;;;;;;5038108;28;20493;-64
2023/02/21 13:49:49;;;;;;;5.60;4.90;;;20.70;84.20;;;;;;5042124;28;20529;-65
2023/02/21 13:53:02;;;;;;;5.35;4.70;;;20.70;84.20;;;;;;5044474;28;20450;-63
2023/02/21 13:55:34;;;;;;;5.03;4.63;;;20.70;84.20;;;;;;5034196;28;20215;-69
2023/02/21 13:58:34;;;;;;;5.10;4.47;;;20.70;84.10;;;;;;5039314;28;20446;-68
2023/02/21 14:01:21;;;;;;;4.27;3.87;;;20.80;84.30;;;;;;5044739;28;20199;-63
2023/02/21 14:03:48;;;;;;;9.10;8.20;;;20.70;84.20;;;;;;5040404;28;20973;-62
2023/02/21 14:06:31;;;;;;;10.52;9.52;;;20.60;83.10;;;;;;5039703;28;20462;-63
2023/02/21 14:09:03;;;;;;;11.48;9.88;;;20.40;82.80;;;;;;5037333;28;20195;-60
2023/02/21 14:11:36;;;;;;;10.23;8.82;;;20.30;81.00;;;;;;5040844;28;20191;-61
2023/02/21 14:14:06;;;;;;;11.50;10.40;;;20.20;80.30;;;;;;5044049;28;20234;-61
2023/02/21 14:16:35;;;;;;;12.40;10.83;;;20.00;79.40;;;;;;5047012;28;20192;-60
2023/02/21 14:19:06;;;;;;;11.95;10.73;;;19.90;78.80;;;;;;5046115;28;20480;-61
2023/02/21 14:21:37;;;;;;;11.88;10.77;;;19.90;78.80;;;;;;5048082;28;20218;-62
2023/02/21 14:24:11;;;;;;;12.13;11.05;;;19.80;78.30;;;;;;5047183;28;20206;-62
2023/02/21 14:26:42;;;;;;;14.27;12.93;;;19.70;77.80;;;;;;5050769;28;20195;-62
2023/02/21 14:29:33;;;;;;;10.75;9.60;;;19.60;77.50;;;;;;5048173;28;20217;-61
2023/02/21 14:32:16;;;;;;;7.95;7.10;;;19.70;78.20;;;;;;5045997;28;20590;-58
2023/02/21 14:34:54;;;;;;;8.02;7.22;;;20.00;78.90;;;;;;5039816;28;21712;-58
2023/02/21 14:37:26;;;;;;;7.07;6.38;;;20.20;80.10;;;;;;5043945;28;20199;-57
2023/02/21 14:39:57;;;;;;;6.18;5.60;;;20.30;79.50;;;;;;5039916;28;20215;-57
2023/02/21 14:42:35;;;;;;;7.00;5.97;;;20.40;79.70;;;;;;5044697;28;20207;-56
2023/02/21 14:45:19;;;;;;;6.55;5.88;;;20.40;79.80;;;;;;5045798;28;20238;-59
2023/02/21 14:48:07;;;;;;;9.65;6.72;;;20.50;80.10;;;;;;5047201;28;20203;-56
2023/02/21 14:51:04;;;;;;;6.82;6.18;;;20.50;80.20;;;;;;5033927;28;20200;-60
2023/02/21 14:54:05;;;;;;;6.67;5.83;;;20.50;80.30;;;;;;5042475;28;20195;-65
2023/02/21 14:56:58;;;;;;;6.90;6.30;;;20.50;80.40;;;;;;5045873;28;20454;-64
2023/02/21 15:00:05;;;;;;;7.37;5.60;;;20.60;80.70;;;;;;5042393;28;20460;-63
2023/02/21 15:02:39;;;;;;;7.30;5.23;;;20.60;80.80;;;;;;5045472;28;20847;-63
2023/02/21 15:05:14;;;;;;;5.70;5.20;;;20.60;80.90;;;;;;5044495;28;20469;-61
2023/02/21 15:07:52;;;;;;;4.83;4.33;;;20.60;81.00;;;;;;5051719;28;20478;-59
2023/02/21 15:10:25;;;;;;;5.20;4.70;;;20.60;81.20;;;;;;5043478;28;20468;-63
2023/02/21 15:12:56;;;;;;;5.13;4.63;;;20.60;81.20;;;;;;5049778;28;20468;-64
2023/02/21 15:15:26;;;;;;;6.23;5.53;;;20.70;81.40;;;;;;5042758;28;20484;-63
2023/02/21 15:17:59;;;;;;;6.40;4.80;;;20.70;81.50;;;;;;5042972;28;20465;-60
2023/02/21 15:20:25;;;;;;;5.10;4.60;;;20.70;81.60;;;;;;5048084;28;20457;-62
2023/02/21 15:22:56;;;;;;;4.90;4.50;;;20.70;81.60;;;;;;5053442;28;20481;-61
2023/02/21 15:25:24;;;;;;;4.20;3.90;;;20.70;81.70;;;;;;5047059;28;20461;-60
2023/02/21 15:28:04;;;;;;;5.20;4.73;;;20.70;81.70;;;;;;5040121;28;20454;-65
2023/02/21 15:30:37;;;;;;;5.03;4.53;;;20.70;81.70;;;;;;5049490;28;20461;-62